createdAt,value
2023-02-27T00:00:14.980Z,96225.59
2023-02-27T00:02:43.367Z,96209.72
2023-02-27T00:05:11.474Z,96214.81
2023-02-27T00:07:39.540Z,96226.63
2023-02-27T00:10:10.162Z,96220.09
2023-02-27T00:12:39.082Z,96214.66
2023-02-27T00:15:10.708Z,96208.91
2023-02-27T00:17:39.260Z,96207.22
2023-02-27T00:20:11.322Z,96207.72
2023-02-27T00:22:39.385Z,96189.75
2023-02-27T00:25:08.349Z,96202.88
2023-02-27T00:27:37.432Z,96205.66
2023-02-27T00:30:06.505Z,96192.22
2023-02-27T00:32:36.769Z,96202.56
2023-02-27T00:35:05.523Z,96197.63
2023-02-27T00:37:34.454Z,96198.94
2023-02-27T00:40:04.080Z,96203.00
2023-02-27T00:42:32.252Z,96205.81
2023-02-27T00:44:59.978Z,96206.00
2023-02-27T00:47:27.927Z,96199.03
2023-02-27T00:49:57.090Z,96203.66
2023-02-27T00:52:24.781Z,96216.56
2023-02-27T00:54:52.614Z,96209.28
2023-02-27T00:57:20.452Z,96208.53
2023-02-27T00:59:49.062Z,96227.31
2023-02-27T01:02:16.828Z,96203.13
2023-02-27T01:04:44.804Z,96211.53
2023-02-27T01:07:13.978Z,96222.41
2023-02-27T01:09:41.700Z,96214.81
2023-02-27T01:12:09.919Z,96218.44
2023-02-27T01:14:38.139Z,96222.75
2023-02-27T01:17:06.047Z,96210.16
2023-02-27T01:19:33.880Z,96216.25
2023-02-27T01:22:01.638Z,96198.28
2023-02-27T01:24:30.777Z,96211.06
2023-02-27T01:26:58.491Z,96196.75
2023-02-27T01:29:26.359Z,96205.09
2023-02-27T01:31:54.941Z,96193.00
2023-02-27T01:34:22.770Z,96196.25
2023-02-27T01:36:50.694Z,96182.09
2023-02-27T01:39:18.546Z,96198.47
2023-02-27T01:41:47.837Z,96186.78
2023-02-27T01:44:15.856Z,96200.09
2023-02-27T01:46:44.558Z,96201.72
2023-02-27T01:49:15.286Z,96185.75
2023-02-27T01:51:47.151Z,96186.56
2023-02-27T01:54:18.754Z,96199.28
2023-02-27T01:56:48.753Z,96188.78
2023-02-27T01:59:17.486Z,96182.41
2023-02-27T02:01:45.993Z,96182.75
2023-02-27T02:04:21.313Z,96189.56
2023-02-27T02:06:51.690Z,96185.38
2023-02-27T02:09:22.427Z,96186.31
2023-02-27T02:11:52.506Z,96175.06
2023-02-27T02:14:20.295Z,96176.69
2023-02-27T02:17:04.993Z,96174.16
2023-02-27T02:19:54.358Z,96175.81
2023-02-27T02:22:54.875Z,96178.59
2023-02-27T02:25:55.328Z,96182.41
2023-02-27T02:28:41.806Z,96179.31
2023-02-27T02:31:29.207Z,96186.66
2023-02-27T02:34:32.063Z,96197.88
2023-02-27T02:37:44.468Z,96189.00
2023-02-27T02:40:31.920Z,96173.88
2023-02-27T02:43:09.498Z,96191.56
2023-02-27T02:45:45.317Z,96170.78
2023-02-27T02:48:15.343Z,96193.38
2023-02-27T02:50:50.252Z,96189.56
2023-02-27T02:53:36.591Z,96176.22
2023-02-27T02:56:12.332Z,96186.31
2023-02-27T02:58:47.601Z,96193.25
2023-02-27T03:01:17.189Z,96187.03
2023-02-27T03:03:49.611Z,96198.81
2023-02-27T03:06:22.642Z,96191.00
2023-02-27T03:08:55.937Z,96195.88
2023-02-27T03:11:29.231Z,96209.03
2023-02-27T03:14:03.075Z,96192.16
2023-02-27T03:16:36.290Z,96211.19
2023-02-27T03:19:09.152Z,96198.00
2023-02-27T03:21:42.201Z,96212.72
2023-02-27T03:24:15.806Z,96207.09
2023-02-27T03:26:47.733Z,96196.28
2023-02-27T03:29:17.204Z,96208.81
2023-02-27T03:31:51.142Z,96206.75
2023-02-27T03:34:23.981Z,96201.84
2023-02-27T03:36:59.403Z,96219.22
2023-02-27T03:39:36.484Z,96199.47
2023-02-27T03:42:16.308Z,96205.19
2023-02-27T03:44:54.844Z,96221.25
2023-02-27T03:47:23.192Z,96215.28
2023-02-27T03:49:52.104Z,96218.22
2023-02-27T03:52:20.870Z,96223.72
2023-02-27T03:54:54.957Z,96231.75
2023-02-27T03:57:24.286Z,96232.69
2023-02-27T03:59:53.235Z,96226.09
2023-02-27T04:02:22.377Z,96229.38
2023-02-27T04:04:50.151Z,96230.00
2023-02-27T04:07:26.716Z,96242.53
2023-02-27T04:10:22.556Z,96233.66
2023-02-27T04:13:07.342Z,96231.31
2023-02-27T04:15:48.077Z,96231.66
2023-02-27T04:18:26.879Z,96231.66
2023-02-27T04:20:58.333Z,96231.06
2023-02-27T04:23:35.739Z,96239.91
2023-02-27T04:26:18.022Z,96231.34
2023-02-27T04:28:55.075Z,96238.53
2023-02-27T04:31:28.804Z,96236.91
2023-02-27T04:34:03.684Z,96239.66
2023-02-27T04:36:36.838Z,96238.53
2023-02-27T04:39:08.498Z,96233.88
2023-02-27T04:41:41.249Z,96238.78
2023-02-27T04:44:12.779Z,96241.53
2023-02-27T04:46:43.937Z,96253.38
2023-02-27T04:49:17.447Z,96244.97
2023-02-27T04:51:51.933Z,96253.84
2023-02-27T04:54:26.026Z,96244.91
2023-02-27T04:56:57.535Z,96247.09
2023-02-27T04:59:29.509Z,96250.72
2023-02-27T05:02:01.244Z,96251.19
2023-02-27T05:04:34.017Z,96247.41
2023-02-27T05:07:04.072Z,96241.22
2023-02-27T05:09:37.800Z,96257.47
2023-02-27T05:12:16.396Z,96254.22
2023-02-27T05:14:52.329Z,96263.31
2023-02-27T05:17:24.311Z,96263.19
2023-02-27T05:19:52.198Z,96256.66
2023-02-27T05:22:31.157Z,96257.13
2023-02-27T05:25:04.348Z,96250.47
2023-02-27T05:27:37.167Z,96259.47
2023-02-27T05:30:13.694Z,96253.91
2023-02-27T05:32:47.657Z,96266.88
2023-02-27T05:35:24.035Z,96259.34
2023-02-27T05:37:56.349Z,96265.31
2023-02-27T05:40:32.012Z,96267.53
2023-02-27T05:43:04.438Z,96271.84
2023-02-27T05:45:38.271Z,96263.31
2023-02-27T05:48:10.514Z,96271.03
2023-02-27T05:50:39.870Z,96265.53
2023-02-27T05:53:12.173Z,96272.22
2023-02-27T05:55:43.587Z,96279.69
2023-02-27T05:58:18.501Z,96284.75
2023-02-27T06:00:52.616Z,96272.31
2023-02-27T06:03:21.179Z,96269.91
2023-02-27T06:05:52.987Z,96278.03
2023-02-27T06:08:21.628Z,96288.44
2023-02-27T06:10:50.211Z,96283.16
2023-02-27T06:13:18.369Z,96264.63
2023-02-27T06:15:46.765Z,96271.16
2023-02-27T06:18:17.370Z,96289.56
2023-02-27T06:20:45.946Z,96284.16
2023-02-27T06:23:14.392Z,96292.06
2023-02-27T06:25:42.537Z,96296.31
2023-02-27T06:28:10.862Z,96288.19
2023-02-27T06:30:38.657Z,96302.91
2023-02-27T06:33:06.524Z,96301.75
2023-02-27T06:35:35.728Z,96298.81
2023-02-27T06:38:03.518Z,96305.72
2023-02-27T06:40:31.516Z,96312.94
2023-02-27T06:42:59.363Z,96314.56
2023-02-27T06:45:27.463Z,96311.84
2023-02-27T06:47:55.648Z,96312.63
2023-02-27T06:50:23.445Z,96321.75
2023-02-27T06:52:52.656Z,96326.75
2023-02-27T06:55:22.665Z,96322.59
2023-02-27T06:57:50.946Z,96324.94
2023-02-27T07:00:19.634Z,96321.81
2023-02-27T07:02:47.477Z,96306.06
2023-02-27T07:05:15.256Z,96333.94
2023-02-27T07:07:43.218Z,96334.34
2023-02-27T07:10:16.554Z,96339.31
2023-02-27T07:12:44.400Z,96323.59
2023-02-27T07:15:13.060Z,96331.63
2023-02-27T07:17:40.916Z,96341.38
2023-02-27T07:20:11.615Z,96340.75
2023-02-27T07:22:39.542Z,96350.41
2023-02-27T07:25:09.238Z,96343.97
2023-02-27T07:27:38.625Z,96346.47
2023-02-27T07:30:07.425Z,96354.38
2023-02-27T07:32:35.465Z,96351.59
2023-02-27T07:35:04.168Z,96350.41
2023-02-27T07:37:31.945Z,96352.22
2023-02-27T07:39:59.818Z,96357.59
2023-02-27T07:42:27.867Z,96362.41
2023-02-27T07:44:57.017Z,96357.13
2023-02-27T07:47:24.828Z,96356.75
2023-02-27T07:49:52.540Z,96377.78
2023-02-27T07:52:20.284Z,96362.41
2023-02-27T07:54:48.013Z,96359.88
2023-02-27T07:57:15.818Z,96359.53
2023-02-27T07:59:43.524Z,96357.19
2023-02-27T08:02:13.369Z,96374.69
2023-02-27T08:04:41.143Z,96377.38
2023-02-27T08:07:08.979Z,96371.53
2023-02-27T08:09:36.755Z,96370.94
2023-02-27T08:12:04.659Z,96378.38
2023-02-27T08:14:32.457Z,96377.78
2023-02-27T08:17:01.238Z,96375.63
2023-02-27T08:19:30.413Z,96375.22
2023-02-27T08:21:58.270Z,96380.84
2023-02-27T08:24:26.186Z,96383.63
2023-02-27T08:26:53.885Z,96384.38
2023-02-27T08:29:21.675Z,96386.59
2023-02-27T08:31:50.063Z,96390.91
2023-02-27T08:34:18.018Z,96389.94
2023-02-27T08:36:47.236Z,96401.81
2023-02-27T08:39:14.929Z,96388.56
2023-02-27T08:41:43.055Z,96400.56
2023-02-27T08:44:12.890Z,96398.13
2023-02-27T08:46:40.618Z,96393.72
2023-02-27T08:49:08.789Z,96415.03
2023-02-27T08:51:36.536Z,96409.34
2023-02-27T08:54:05.869Z,96395.94
2023-02-27T08:56:34.782Z,96413.16
2023-02-27T08:59:02.984Z,96410.66
2023-02-27T09:01:34.349Z,96417.06
2023-02-27T09:04:03.248Z,96425.56
2023-02-27T09:06:32.287Z,96420.97
2023-02-27T09:09:00.271Z,96424.81
2023-02-27T09:11:30.333Z,96439.66
2023-02-27T09:13:58.823Z,96433.78
2023-02-27T09:16:27.512Z,96436.28
2023-02-27T09:18:55.560Z,96438.00
2023-02-27T09:21:24.568Z,96438.84
2023-02-27T09:23:52.368Z,96444.66
2023-02-27T09:26:21.701Z,96445.03
2023-02-27T09:28:52.218Z,96453.69
2023-02-27T09:31:20.125Z,96454.06
2023-02-27T09:33:48.198Z,96461.34
2023-02-27T09:36:16.200Z,96460.16
2023-02-27T09:38:44.037Z,96454.78
2023-02-27T09:41:33.754Z,96476.91
2023-02-27T09:44:04.458Z,96467.03
2023-02-27T09:46:32.790Z,96486.81
2023-02-27T09:49:03.316Z,96465.84
2023-02-27T09:51:31.185Z,96483.97
2023-02-27T09:54:02.556Z,96485.59
2023-02-27T09:56:35.534Z,96487.47
2023-02-27T09:59:14.393Z,96490.19
2023-02-27T10:01:49.103Z,96493.50
2023-02-27T10:04:32.805Z,96490.22
2023-02-27T10:07:07.010Z,96497.97
2023-02-27T10:09:48.328Z,96494.47
2023-02-27T10:12:31.480Z,96519.28
2023-02-27T10:15:05.866Z,96513.63
2023-02-27T10:17:39.690Z,96508.53
2023-02-27T10:20:11.562Z,96521.94
2023-02-27T10:22:45.522Z,96512.47
2023-02-27T10:25:30.140Z,96523.34
2023-02-27T10:28:10.394Z,96528.13
2023-02-27T10:30:39.698Z,96522.03
2023-02-27T10:33:11.084Z,96531.50
2023-02-27T10:35:42.266Z,96521.34
2023-02-27T10:38:15.553Z,96536.59
2023-02-27T10:40:44.413Z,96523.78
2023-02-27T10:43:15.863Z,96549.47
2023-02-27T10:45:45.433Z,96538.13
2023-02-27T10:48:14.483Z,96551.94
2023-02-27T10:50:44.424Z,96548.63
2023-02-27T10:53:22.440Z,96556.75
2023-02-27T10:56:01.377Z,96528.63
2023-02-27T10:58:34.752Z,96548.53
2023-02-27T11:01:07.368Z,96545.41
2023-02-27T11:03:40.637Z,96546.81
2023-02-27T11:06:14.338Z,96556.34
2023-02-27T11:08:42.130Z,96558.09
2023-02-27T11:11:12.086Z,96567.84
2023-02-27T11:13:42.090Z,96562.03
2023-02-27T11:16:15.442Z,96565.91
2023-02-27T11:18:44.954Z,96561.22
2023-02-27T11:21:18.177Z,96569.66
2023-02-27T11:23:55.859Z,96566.50
2023-02-27T11:26:31.029Z,96571.78
2023-02-27T11:29:18.156Z,96556.06
2023-02-27T11:31:52.140Z,96566.88
2023-02-27T11:34:23.798Z,96556.63
2023-02-27T11:36:54.492Z,96570.19
2023-02-27T11:39:26.802Z,96574.16
2023-02-27T11:41:56.371Z,96565.53
2023-02-27T11:44:50.331Z,96569.16
2023-02-27T11:47:22.830Z,96570.22
2023-02-27T11:50:29.601Z,96574.09
2023-02-27T11:53:15.556Z,96574.78
2023-02-27T11:55:45.199Z,96577.94
2023-02-27T11:58:16.474Z,96577.94
2023-02-27T12:00:50.211Z,96579.06
2023-02-27T12:03:23.856Z,96583.00
2023-02-27T12:05:55.486Z,96568.69
2023-02-27T12:08:31.937Z,96571.94
2023-02-27T12:11:13.568Z,96581.84
2023-02-27T12:13:46.020Z,96573.22
2023-02-27T12:16:20.758Z,96575.44
2023-02-27T12:18:55.277Z,96571.41
2023-02-27T12:21:28.302Z,96577.16
2023-02-27T12:24:03.607Z,96566.50
2023-02-27T12:26:35.730Z,96574.31
2023-02-27T12:29:10.540Z,96578.38
2023-02-27T12:31:48.309Z,96576.09
2023-02-27T12:34:27.261Z,96562.63
2023-02-27T12:36:55.462Z,96589.97
2023-02-27T12:39:25.547Z,96589.22
2023-02-27T12:42:12.204Z,96586.91
2023-02-27T12:45:05.118Z,96578.91
2023-02-27T12:47:42.701Z,96582.06
2023-02-27T12:50:16.251Z,96589.16
2023-02-27T12:52:58.831Z,96585.25
2023-02-27T12:55:29.675Z,96595.41
2023-02-27T12:58:16.188Z,96593.47
2023-02-27T13:00:49.050Z,96599.28
2023-02-27T13:03:23.109Z,96590.06
2023-02-27T13:06:01.634Z,96576.41
2023-02-27T13:09:00.857Z,96603.94
2023-02-27T13:11:41.747Z,96598.94
2023-02-27T13:14:21.698Z,96596.97
2023-02-27T13:16:57.594Z,96607.72
2023-02-27T13:19:30.688Z,96604.34
2023-02-27T13:22:10.890Z,96611.63
2023-02-27T13:24:43.915Z,96605.63
2023-02-27T13:27:20.624Z,96593.28
2023-02-27T13:29:56.606Z,96598.81
2023-02-27T13:32:42.842Z,96600.59
2023-02-27T13:35:24.648Z,96600.22
2023-02-27T13:37:58.577Z,96599.69
2023-02-27T13:40:36.504Z,96593.94
2023-02-27T13:43:07.229Z,96596.81
2023-02-27T13:45:52.127Z,96596.00
2023-02-27T13:48:46.341Z,96597.84
2023-02-27T13:51:59.615Z,96610.53
2023-02-27T13:54:41.512Z,96613.72
2023-02-27T13:57:23.004Z,96603.78
2023-02-27T14:00:00.506Z,96610.44
2023-02-27T14:02:58.298Z,96612.06
2023-02-27T14:05:30.994Z,96618.03
2023-02-27T14:08:04.721Z,96617.84
2023-02-27T14:10:34.845Z,96610.63
2023-02-27T14:13:03.742Z,96629.66
2023-02-27T14:15:55.380Z,96619.13
2023-02-27T14:18:57.873Z,96619.91
2023-02-27T14:21:44.275Z,96623.28
2023-02-27T14:24:15.283Z,96615.97
2023-02-27T14:26:46.661Z,96628.34
2023-02-27T14:29:19.801Z,96610.41
2023-02-27T14:31:48.929Z,96618.44
2023-02-27T14:34:21.168Z,96617.44
2023-02-27T14:36:53.130Z,96627.81
2023-02-27T14:39:23.309Z,96629.16
2023-02-27T14:42:02.313Z,96619.50
2023-02-27T14:44:39.710Z,96626.19
2023-02-27T14:47:07.892Z,96608.88
2023-02-27T14:49:37.598Z,96629.03
2023-02-27T14:52:13.401Z,96622.09
2023-02-27T14:54:41.244Z,96622.31
2023-02-27T14:57:17.642Z,96607.66
2023-02-27T14:59:47.938Z,96606.28
2023-02-27T15:02:22.656Z,96625.50
2023-02-27T15:04:55.780Z,96633.81
2023-02-27T15:07:26.862Z,96634.09
2023-02-27T15:09:56.869Z,96628.19
2023-02-27T15:12:27.810Z,96628.19
2023-02-27T15:14:58.666Z,96631.97
2023-02-27T15:17:29.002Z,96636.50
2023-02-27T15:19:59.164Z,96640.78
2023-02-27T15:22:38.878Z,96633.19
2023-02-27T15:25:08.610Z,96640.63
2023-02-27T15:27:38.520Z,96628.28
2023-02-27T15:30:09.598Z,96643.03
2023-02-27T15:32:43.050Z,96641.13
2023-02-27T15:35:17.739Z,96650.00
2023-02-27T15:37:48.754Z,96651.50
2023-02-27T15:40:22.810Z,96655.09
2023-02-27T15:42:54.082Z,96654.63
2023-02-27T15:45:23.991Z,96651.38
2023-02-27T15:47:52.502Z,96647.75
2023-02-27T15:50:28.348Z,96649.72
2023-02-27T15:53:03.788Z,96645.06
2023-02-27T15:55:35.294Z,96648.91
2023-02-27T15:58:07.067Z,96654.81
2023-02-27T16:00:35.678Z,96666.66
2023-02-27T16:03:03.730Z,96670.94
2023-02-27T16:05:36.616Z,96664.50
2023-02-27T16:08:05.655Z,96671.28
2023-02-27T16:10:37.828Z,96680.28
2023-02-27T16:13:22.388Z,96669.78
2023-02-27T16:16:00.540Z,96671.94
2023-02-27T16:18:34.561Z,96682.28
2023-02-27T16:21:14.902Z,96692.81
2023-02-27T16:23:43.200Z,96692.97
2023-02-27T16:26:28.011Z,96682.78
2023-02-27T16:28:59.962Z,96687.53
2023-02-27T16:31:31.064Z,96699.38
2023-02-27T16:34:01.324Z,96704.66
2023-02-27T16:36:32.074Z,96703.31
2023-02-27T16:39:00.036Z,96683.44
2023-02-27T16:41:28.705Z,96711.19
2023-02-27T16:43:58.020Z,96710.56
2023-02-27T16:46:26.008Z,96710.22
2023-02-27T16:48:55.892Z,96707.94
2023-02-27T16:51:25.707Z,96709.91
2023-02-27T16:53:55.122Z,96703.63
2023-02-27T16:56:37.346Z,96715.00
2023-02-27T16:59:07.166Z,96716.66
2023-02-27T17:01:34.965Z,96716.16
2023-02-27T17:04:05.272Z,96721.22
2023-02-27T17:06:36.489Z,96729.28
2023-02-27T17:09:04.723Z,96723.88
2023-02-27T17:11:32.458Z,96729.44
2023-02-27T17:14:00.158Z,96739.66
2023-02-27T17:16:29.757Z,96730.59
2023-02-27T17:18:57.817Z,96734.88
2023-02-27T17:21:25.638Z,96747.22
2023-02-27T17:23:53.456Z,96754.59
2023-02-27T17:26:21.495Z,96755.09
2023-02-27T17:28:49.402Z,96756.22
2023-02-27T17:31:22.712Z,96768.06
2023-02-27T17:33:52.456Z,96752.28
2023-02-27T17:36:20.587Z,96767.09
2023-02-27T17:38:49.054Z,96771.34
2023-02-27T17:41:17.413Z,96770.38
2023-02-27T17:43:45.191Z,96773.31
2023-02-27T17:46:14.636Z,96774.63
2023-02-27T17:48:42.436Z,96785.63
2023-02-27T17:51:14.588Z,96773.31
2023-02-27T17:53:42.581Z,96785.81
2023-02-27T17:56:10.997Z,96785.63
2023-02-27T17:58:38.912Z,96802.72
2023-02-27T18:01:07.401Z,96804.84
2023-02-27T18:03:35.430Z,96799.59
2023-02-27T18:06:03.387Z,96789.06
2023-02-27T18:08:32.780Z,96791.16
2023-02-27T18:11:01.166Z,96802.03
2023-02-27T18:13:29.209Z,96804.16
2023-02-27T18:15:57.857Z,96811.06
2023-02-27T18:18:25.632Z,96817.94
2023-02-27T18:21:02.306Z,96820.56
2023-02-27T18:23:30.464Z,96810.91
2023-02-27T18:26:01.193Z,96820.56
2023-02-27T18:28:29.872Z,96816.59
2023-02-27T18:30:58.239Z,96818.22
2023-02-27T18:33:27.392Z,96812.84
2023-02-27T18:35:55.508Z,96813.31
2023-02-27T18:38:23.459Z,96816.41
2023-02-27T18:40:51.202Z,96804.75
2023-02-27T18:43:20.474Z,96816.88
2023-02-27T18:45:48.665Z,96823.97
2023-02-27T18:48:17.084Z,96812.00
2023-02-27T18:50:44.959Z,96819.25
2023-02-27T18:53:12.712Z,96824.44
2023-02-27T18:55:40.543Z,96825.44
2023-02-27T18:58:08.329Z,96821.66
2023-02-27T19:00:37.816Z,96817.91
2023-02-27T19:03:06.389Z,96815.47
2023-02-27T19:05:34.674Z,96822.56
2023-02-27T19:08:02.410Z,96815.31
2023-02-27T19:10:31.011Z,96804.44
2023-02-27T19:12:58.784Z,96813.19
2023-02-27T19:15:26.527Z,96806.16
2023-02-27T19:17:55.632Z,96803.47
2023-02-27T19:20:23.723Z,96818.09
2023-02-27T19:22:53.426Z,96806.44
2023-02-27T19:25:22.054Z,96801.50
2023-02-27T19:27:53.543Z,96808.22
2023-02-27T19:30:21.499Z,96799.88
2023-02-27T19:32:49.367Z,96807.78
2023-02-27T19:35:19.069Z,96810.06
2023-02-27T19:37:48.714Z,96800.34
2023-02-27T19:40:17.144Z,96795.56
2023-02-27T19:42:45.731Z,96812.34
2023-02-27T19:45:13.573Z,96794.13
2023-02-27T19:47:41.366Z,96806.09
2023-02-27T19:50:10.607Z,96799.34
2023-02-27T19:52:39.799Z,96809.72
2023-02-27T19:55:08.368Z,96806.59
2023-02-27T19:57:37.066Z,96791.94
2023-02-27T20:00:06.499Z,96808.41
2023-02-27T20:02:34.329Z,96798.69
2023-02-27T20:05:03.121Z,96803.66
2023-02-27T20:07:32.099Z,96797.91
2023-02-27T20:10:01.207Z,96802.88
2023-02-27T20:12:28.946Z,96792.31
2023-02-27T20:14:56.663Z,96765.63
2023-02-27T20:17:24.427Z,96790.63
2023-02-27T20:19:52.167Z,96784.91
2023-02-27T20:22:19.944Z,96781.09
2023-02-27T20:24:47.815Z,96783.09
2023-02-27T20:27:16.938Z,96774.25
2023-02-27T20:29:44.634Z,96778.88
2023-02-27T20:32:12.462Z,96777.84
2023-02-27T20:34:40.230Z,96774.25
2023-02-27T20:37:07.964Z,96770.75
2023-02-27T20:39:35.923Z,96772.28
2023-02-27T20:42:04.412Z,96766.66
2023-02-27T20:44:33.607Z,96772.28
2023-02-27T20:47:01.434Z,96756.16
2023-02-27T20:49:29.184Z,96764.03
2023-02-27T20:51:57.768Z,96766.19
2023-02-27T20:54:25.595Z,96737.41
2023-02-27T20:56:54.455Z,96768.66
2023-02-27T20:59:24.648Z,96765.38
2023-02-27T21:01:54.459Z,96764.72
2023-02-27T21:04:24.057Z,96758.63
2023-02-27T21:06:52.754Z,96768.16
2023-02-27T21:09:20.525Z,96761.41
2023-02-27T21:11:48.374Z,96765.69
2023-02-27T21:14:16.364Z,96754.19
2023-02-27T21:16:44.140Z,96763.25
2023-02-27T21:19:13.244Z,96751.25
2023-02-27T21:21:40.943Z,96762.72
2023-02-27T21:24:09.018Z,96760.78
2023-02-27T21:26:39.226Z,96755.03
2023-02-27T21:29:08.833Z,96752.59
2023-02-27T21:31:39.232Z,96757.84
2023-02-27T21:34:11.739Z,96756.53
2023-02-27T21:36:44.216Z,96750.44
2023-02-27T21:39:15.171Z,96738.44
2023-02-27T21:41:43.131Z,96743.38
2023-02-27T21:44:13.878Z,96744.53
2023-02-27T21:46:42.347Z,96739.13
2023-02-27T21:49:13.741Z,96742.56
2023-02-27T21:51:43.532Z,96739.25
2023-02-27T21:54:13.374Z,96745.00
2023-02-27T21:56:41.949Z,96732.19
2023-02-27T21:59:09.993Z,96743.66
2023-02-27T22:01:38.674Z,96735.44
2023-02-27T22:04:06.898Z,96730.19
2023-02-27T22:06:35.856Z,96732.50
2023-02-27T22:09:07.646Z,96741.72
2023-02-27T22:11:36.053Z,96740.75
2023-02-27T22:14:04.229Z,96730.88
2023-02-27T22:16:32.133Z,96746.97
2023-02-27T22:18:59.955Z,96747.97
2023-02-27T22:21:28.680Z,96741.38
2023-02-27T22:23:58.186Z,96734.50
2023-02-27T22:26:31.196Z,96746.69
2023-02-27T22:29:00.322Z,96742.56
2023-02-27T22:31:30.387Z,96740.41
2023-02-27T22:34:03.366Z,96734.50
2023-02-27T22:36:32.766Z,96715.41
2023-02-27T22:39:00.815Z,96738.78
2023-02-27T22:41:32.638Z,96730.38
2023-02-27T22:44:04.204Z,96734.78
2023-02-27T22:46:34.440Z,96731.88
2023-02-27T22:49:04.924Z,96730.88
2023-02-27T22:51:32.997Z,96713.78
2023-02-27T22:54:03.207Z,96737.13
2023-02-27T22:56:33.508Z,96741.72
2023-02-27T22:59:01.608Z,96734.19
2023-02-27T23:01:31.457Z,96720.69
2023-02-27T23:04:02.009Z,96728.25
2023-02-27T23:06:32.245Z,96725.81
2023-02-27T23:09:00.929Z,96740.88
2023-02-27T23:11:28.928Z,96731.19
2023-02-27T23:13:58.669Z,96721.50
2023-02-27T23:16:26.684Z,96734.53
2023-02-27T23:18:56.381Z,96728.94
2023-02-27T23:21:26.845Z,96733.84
2023-02-27T23:23:57.416Z,96736.97
2023-02-27T23:26:28.581Z,96734.00
2023-02-27T23:28:58.598Z,96731.56
2023-02-27T23:31:26.474Z,96737.97
2023-02-27T23:33:54.858Z,96734.84
2023-02-27T23:36:22.614Z,96730.06
2023-02-27T23:38:50.471Z,96728.59
2023-02-27T23:41:20.675Z,96733.19
2023-02-27T23:44:10.340Z,96725.97
2023-02-27T23:46:40.784Z,96735.47
2023-02-27T23:49:08.858Z,96730.22
2023-02-27T23:51:37.040Z,96728.25
2023-02-27T23:54:05.325Z,96731.88
2023-02-27T23:56:33.148Z,96716.44
2023-02-27T23:59:02.376Z,96718.72
